Observations for BRESCIA MONTICHIA, Italy (LIPO)

LIPO 180650Z 12005KT CAVOK 26/15 Q1016  
LIPO 180550Z 10001KT CAVOK 25/15 Q1016  
LIPO 180450Z 31002KT CAVOK 21/16 Q1016  
LIPO 180350Z 08004KT CAVOK 20/15 Q1015  
LIPO 180250Z 05004KT CAVOK 22/15 Q1015  
LIPO 180150Z 06006KT CAVOK 22/15 Q1015  
LIPO 180050Z 07004KT CAVOK 23/15 Q1015  
LIPO 172350Z 06007KT CAVOK 23/15 Q1015  
LIPO 172250Z 05005KT CAVOK 23/15 Q1015  
LIPO 172150Z 05004KT CAVOK 24/16 Q1015  
LIPO 172050Z 13005KT CAVOK 25/15 Q1015  
LIPO 171950Z 13005KT CAVOK 26/15 Q1014  
LIPO 171850Z 16003KT CAVOK 28/14 Q1014  
LIPO 171750Z 15007KT CAVOK 29/13 Q1014  
LIPO 171650Z 13005KT 9999 FEW050 30/12 Q1014
LIPO 171550Z 11005KT 9999 FEW050 31/11 Q1014
LIPO 171450Z 15008KT 9999 FEW050 31/12 Q1014
LIPO 171350Z 13008KT 090V160 9999 FEW050 30/12 Q1015
LIPO 171250Z 15009KT CAVOK 30/13 Q1015  
LIPO 171150Z 13010KT CAVOK 30/13 Q1015  
LIPO 171050Z 10007KT CAVOK 30/12 Q1016  
LIPO 170950Z 12016KT CAVOK 29/11 Q1016  
LIPO 170850Z 12013KT CAVOK 28/12 Q1016  
LIPO 170750Z 12008KT CAVOK 27/12 Q1016